Alburgh, New York
Current Conditions -  °F | °C
As of 8:53 PM on Friday 21 Nov 2014 (Local Time) from KMSS Reporting Station
Overcast Overcast  
Wind Chill: 11°   Ceiling: 5000
Heat Index: 22°   Visibility: 10mi
Dew Point: 11°   Wind: 10mph
Humidity: 63%   Direction: 220°SW
Pressure: 30.37"   Gusts: NA
Location:  44.8293°N, 74.5271°W
Report Text: KMSS 220153Z AUTO 22009KT 10SM OVC050 M06/M12 A3037 RMK AO2 SLP294 T10561117
Loading
Personal Weather Stations






























Interactive Weather Map New forecast layout! Learn more

10-Day Weather Forecast

Advertisements
Track Severe Weather on mobile